Time;durP1;ratioP1;P1;durP2;ratioP2;P2;SDS_P1;SDS_P2;PMS_P1;PMS_P2;Temp;Humidity;BMP_temperature;BMP_pressure;BME280_temperature;BME280_humidity;BME280_pressure;Samples;Min_cycle;Max_cycle;Signal;HPM_P1;HPM_P2
2022/04/25 00:02:21;;;;;;;11.27;2.78;;;9.20;99.90;;;;;;4997613;28;20454;-63
2022/04/25 00:04:47;;;;;;;12.85;4.18;;;9.10;99.90;;;;;;4998038;28;20453;-61
2022/04/25 00:07:12;;;;;;;7.38;3.35;;;9.10;99.90;;;;;;4997101;28;20034;-61
2022/04/25 00:09:38;;;;;;;7.95;2.70;;;9.10;99.90;;;;;;4999543;28;20498;-61
2022/04/25 00:12:04;;;;;;;7.88;3.50;;;9.00;99.90;;;;;;4992403;28;20022;-62
2022/04/25 00:14:30;;;;;;;6.85;3.15;;;9.00;99.90;;;;;;4996173;28;20041;-62
2022/04/25 00:16:56;;;;;;;13.10;3.17;;;9.10;99.90;;;;;;4997055;28;20121;-63
2022/04/25 00:19:25;;;;;;;7.40;3.08;;;9.10;99.90;;;;;;4998015;28;20034;-64
2022/04/25 00:21:54;;;;;;;6.45;3.20;;;9.10;99.90;;;;;;4997628;28;20049;-61
2022/04/25 00:24:19;;;;;;;6.82;2.85;;;9.10;99.90;;;;;;4999360;28;20482;-62
2022/04/25 00:26:45;;;;;;;7.95;3.15;;;9.10;99.90;;;;;;4996897;28;20049;-61
2022/04/25 00:29:12;;;;;;;8.18;2.92;;;9.00;99.90;;;;;;4998966;28;20026;-62
2022/04/25 00:31:38;;;;;;;7.93;2.72;;;9.00;99.90;;;;;;4995748;28;20077;-63
2022/04/25 00:34:03;;;;;;;10.82;3.10;;;9.00;99.90;;;;;;4998385;28;20045;-62
2022/04/25 00:36:30;;;;;;;9.27;3.13;;;9.00;99.90;;;;;;4994834;28;20023;-62
2022/04/25 00:38:56;;;;;;;6.45;2.45;;;9.00;99.90;;;;;;4998626;28;20041;-61
2022/04/25 00:41:21;;;;;;;5.70;2.97;;;9.00;99.90;;;;;;4997365;28;20026;-62
2022/04/25 00:43:47;;;;;;;7.32;2.53;;;9.00;99.90;;;;;;4995411;28;20037;-62
2022/04/25 00:46:24;;;;;;;11.98;3.42;;;8.90;99.90;;;;;;4996230;28;20034;-61
2022/04/25 00:48:50;;;;;;;8.50;2.47;;;8.90;99.90;;;;;;4997412;28;20045;-61
2022/04/25 00:51:17;;;;;;;11.73;4.25;;;9.00;99.90;;;;;;4997215;28;20045;-62
2022/04/25 00:53:43;;;;;;;7.70;2.97;;;8.90;99.90;;;;;;4997715;28;20034;-62
2022/04/25 00:56:13;;;;;;;10.73;3.97;;;8.90;99.90;;;;;;4995731;28;20046;-61
2022/04/25 00:58:38;;;;;;;6.35;2.50;;;8.90;99.90;;;;;;4998360;28;20034;-62
2022/04/25 01:01:04;;;;;;;9.43;3.05;;;8.90;99.90;;;;;;4995482;28;20486;-61
2022/04/25 01:03:30;;;;;;;8.90;3.30;;;8.90;99.90;;;;;;4998179;28;20137;-62
2022/04/25 01:05:56;;;;;;;10.10;3.20;;;8.90;99.90;;;;;;4996098;28;20041;-62
2022/04/25 01:08:21;;;;;;;13.50;3.08;;;9.00;99.90;;;;;;4997971;28;20038;-62
2022/04/25 01:10:47;;;;;;;12.95;4.32;;;9.10;99.90;;;;;;4997040;28;20046;-62
2022/04/25 01:13:13;;;;;;;9.05;3.53;;;9.10;99.90;;;;;;4995438;28;20503;-62
2022/04/25 01:15:39;;;;;;;9.48;3.05;;;9.20;99.90;;;;;;4997858;28;20080;-62
2022/04/25 01:18:04;;;;;;;10.70;3.35;;;9.20;99.90;;;;;;4995753;28;20042;-61
2022/04/25 01:20:30;;;;;;;13.27;3.63;;;9.20;99.90;;;;;;4991520;28;20042;-62
2022/04/25 01:28:36;;;;;;;11.20;3.00;;;9.40;99.90;;;;;;5000303;28;20461;-62
2022/04/25 01:31:02;;;;;;;9.55;2.92;;;9.40;99.90;;;;;;4999093;28;20054;-60
2022/04/25 01:33:28;;;;;;;8.32;3.40;;;9.40;99.90;;;;;;5001797;28;20113;-62
2022/04/25 01:35:53;;;;;;;6.00;2.67;;;9.40;99.90;;;;;;4999688;28;20627;-61
2022/04/25 01:38:19;;;;;;;7.32;3.20;;;9.50;99.90;;;;;;5001361;28;20157;-62
2022/04/25 01:40:44;;;;;;;6.28;2.70;;;9.50;99.90;;;;;;5000810;28;20053;-61
2022/04/25 01:43:10;;;;;;;12.57;3.58;;;9.50;99.90;;;;;;4999485;28;20042;-62
2022/04/25 01:45:35;;;;;;;9.00;2.72;;;9.50;99.90;;;;;;5001384;28;20038;-63
2022/04/25 01:48:01;;;;;;;11.80;3.63;;;9.50;99.90;;;;;;4999057;28;20054;-61
2022/04/25 01:50:26;;;;;;;16.52;3.50;;;9.40;99.90;;;;;;5003173;28;20038;-61
2022/04/25 01:52:52;;;;;;;7.95;3.35;;;9.40;99.90;;;;;;5000630;28;20037;-63
2022/04/25 01:55:18;;;;;;;13.63;3.78;;;9.40;99.90;;;;;;4995963;28;20034;-61
2022/04/25 01:57:43;;;;;;;10.23;3.25;;;9.30;99.90;;;;;;4998558;28;20150;-62
2022/04/25 02:00:10;;;;;;;10.13;3.72;;;9.20;99.90;;;;;;4999715;28;20042;-62
2022/04/25 02:02:36;;;;;;;15.57;4.40;;;9.10;99.90;;;;;;5000466;28;20038;-62
2022/04/25 02:05:04;;;;;;;11.75;4.20;;;9.10;99.90;;;;;;4998708;28;20130;-61
2022/04/25 02:07:29;;;;;;;9.32;3.20;;;9.00;99.90;;;;;;4994416;28;20080;-62
2022/04/25 02:09:55;;;;;;;9.00;3.13;;;8.90;99.90;;;;;;5001949;28;20648;-61
2022/04/25 02:12:22;;;;;;;12.98;4.10;;;8.80;99.90;;;;;;4998925;28;20048;-61
2022/04/25 02:14:47;;;;;;;9.07;3.63;;;8.80;99.90;;;;;;5000411;28;20035;-62
2022/04/25 02:17:13;;;;;;;10.00;3.50;;;8.80;99.90;;;;;;5000186;28;20034;-61
2022/04/25 02:19:40;;;;;;;10.95;3.60;;;8.80;99.90;;;;;;4998245;28;20451;-62
2022/04/25 02:22:07;;;;;;;7.00;3.08;;;8.80;99.90;;;;;;4997234;28;20069;-61
2022/04/25 02:24:32;;;;;;;10.13;3.83;;;8.80;99.90;;;;;;5000903;28;20053;-62
2022/04/25 02:26:58;;;;;;;8.75;3.90;;;8.90;99.90;;;;;;4998264;28;20144;-61
2022/04/25 02:29:25;;;;;;;8.75;3.22;;;9.00;99.90;;;;;;4999954;28;20030;-63
2022/04/25 02:31:51;;;;;;;8.15;3.60;;;9.00;99.90;;;;;;4998688;28;20100;-61
2022/04/25 02:34:17;;;;;;;7.85;4.10;;;9.00;99.90;;;;;;4999699;28;20069;-61
2022/04/25 02:36:42;;;;;;;8.82;3.42;;;9.10;99.90;;;;;;4999434;28;20030;-61
2022/04/25 02:39:08;;;;;;;10.88;3.95;;;9.10;99.90;;;;;;4998235;28;20034;-62
2022/04/25 02:41:34;;;;;;;9.80;3.45;;;9.10;99.90;;;;;;5000855;28;20037;-61
2022/04/25 02:43:59;;;;;;;9.32;3.80;;;9.10;99.90;;;;;;4997306;28;20034;-61
2022/04/25 02:46:25;;;;;;;13.88;3.78;;;9.20;99.90;;;;;;5001197;28;20111;-61
2022/04/25 02:48:52;;;;;;;10.50;3.90;;;9.20;99.90;;;;;;4998273;28;20482;-61
2022/04/25 02:51:17;;;;;;;8.57;3.58;;;9.20;99.90;;;;;;4999679;28;20116;-61
2022/04/25 02:53:43;;;;;;;9.35;3.67;;;9.20;99.90;;;;;;4998583;28;20030;-62
2022/04/25 02:56:09;;;;;;;10.23;3.65;;;9.30;99.90;;;;;;5002211;28;20040;-63
2022/04/25 02:58:38;;;;;;;8.93;3.83;;;9.30;99.90;;;;;;4997638;28;20042;-63
2022/04/25 03:01:04;;;;;;;9.20;3.58;;;9.30;99.90;;;;;;5000346;28;20040;-61
2022/04/25 03:03:32;;;;;;;10.60;4.13;;;9.30;99.90;;;;;;4996670;28;20041;-62
2022/04/25 03:05:58;;;;;;;13.43;3.38;;;9.30;99.90;;;;;;5000983;28;20038;-62
2022/04/25 03:08:24;;;;;;;8.43;3.78;;;9.30;99.90;;;;;;4996312;28;20092;-62
2022/04/25 03:10:54;;;;;;;9.65;4.22;;;9.30;99.90;;;;;;4999994;28;20034;-61
2022/04/25 03:13:21;;;;;;;8.43;3.85;;;9.30;99.90;;;;;;4997336;28;20030;-61
2022/04/25 03:15:47;;;;;;;9.63;3.65;;;9.30;99.90;;;;;;4999903;28;20057;-61
2022/04/25 03:18:14;;;;;;;13.35;4.07;;;9.20;99.90;;;;;;4998657;28;20409;-62
2022/04/25 03:20:44;;;;;;;11.73;4.30;;;9.30;99.90;;;;;;4998846;28;20523;-64
2022/04/25 03:23:10;;;;;;;10.35;3.90;;;9.20;99.90;;;;;;4993420;28;20026;-62
2022/04/25 03:25:37;;;;;;;9.57;3.80;;;9.20;99.90;;;;;;4995580;28;20394;-61
2022/04/25 03:28:03;;;;;;;10.98;4.40;;;9.20;99.90;;;;;;4999866;28;20045;-62
2022/04/25 03:30:28;;;;;;;12.60;4.00;;;9.20;99.90;;;;;;5001128;28;20097;-62
2022/04/25 03:32:56;;;;;;;10.98;4.13;;;9.20;99.90;;;;;;4994834;28;20499;-61
2022/04/25 03:35:22;;;;;;;12.70;4.50;;;9.30;99.90;;;;;;5000884;28;20111;-62
2022/04/25 03:37:50;;;;;;;11.23;3.67;;;9.20;99.90;;;;;;4997118;28;20074;-61
2022/04/25 03:40:16;;;;;;;13.52;3.75;;;9.20;99.90;;;;;;4999766;28;20038;-62
2022/04/25 03:42:45;;;;;;;15.10;4.57;;;9.20;99.90;;;;;;4995847;28;20128;-62
2022/04/25 03:45:15;;;;;;;9.40;4.40;;;9.20;99.90;;;;;;4999163;28;20482;-61
2022/04/25 03:47:41;;;;;;;8.02;3.97;;;9.10;99.90;;;;;;4996435;28;20066;-61
2022/04/25 03:50:08;;;;;;;8.43;3.80;;;9.20;99.90;;;;;;4998007;28;20124;-61
2022/04/25 03:52:38;;;;;;;14.48;4.20;;;9.20;99.90;;;;;;4996387;28;20088;-61
2022/04/25 03:57:53;;;;;;;13.13;4.45;;;9.30;99.90;;;;;;4992129;28;20044;-61
2022/04/25 04:00:19;;;;;;;9.63;4.10;;;9.40;99.90;;;;;;5000042;28;20045;-62
2022/04/25 04:02:45;;;;;;;11.98;3.83;;;9.30;99.90;;;;;;4995020;28;20076;-61
2022/04/25 04:05:11;;;;;;;11.57;4.53;;;9.30;99.90;;;;;;4999513;28;20091;-61
2022/04/25 04:07:37;;;;;;;11.13;5.10;;;9.30;99.90;;;;;;4997455;28;20049;-62
2022/04/25 04:10:04;;;;;;;9.45;3.97;;;9.30;99.90;;;;;;4998751;28;20041;-61
2022/04/25 04:12:31;;;;;;;12.48;4.25;;;9.20;99.90;;;;;;4996083;28;20057;-62
2022/04/25 04:14:58;;;;;;;11.13;3.63;;;9.20;99.90;;;;;;4999593;28;20080;-62
2022/04/25 04:17:26;;;;;;;12.68;4.35;;;9.30;99.90;;;;;;4996840;28;20101;-61
2022/04/25 04:19:53;;;;;;;11.38;4.15;;;9.20;99.90;;;;;;4992418;28;20134;-61
2022/04/25 04:22:21;;;;;;;13.27;4.22;;;9.10;99.90;;;;;;4998338;28;20410;-60
2022/04/25 04:24:46;;;;;;;13.48;4.18;;;9.10;99.90;;;;;;4996342;28;20436;-62
2022/04/25 04:27:14;;;;;;;12.05;4.40;;;9.00;99.90;;;;;;4996359;28;20056;-61
2022/04/25 04:29:40;;;;;;;9.48;4.15;;;8.90;99.90;;;;;;4997801;28;20042;-61
2022/04/25 04:32:07;;;;;;;14.32;4.22;;;8.90;99.90;;;;;;4999549;28;20443;-63
2022/04/25 04:34:36;;;;;;;10.57;4.65;;;8.90;99.90;;;;;;4997312;28;20660;-61
2022/04/25 04:37:03;;;;;;;11.60;4.85;;;8.90;99.90;;;;;;4997344;28;20092;-61
2022/04/25 04:39:31;;;;;;;12.60;4.50;;;8.90;99.90;;;;;;4998410;28;20502;-63
2022/04/25 04:41:56;;;;;;;12.80;5.18;;;8.80;99.90;;;;;;4996365;28;20040;-62
2022/04/25 04:44:22;;;;;;;13.38;4.72;;;8.80;99.90;;;;;;4999125;28;20025;-61
2022/04/25 04:46:48;;;;;;;12.45;5.13;;;8.90;99.90;;;;;;4995688;28;20067;-62
2022/04/25 04:49:14;;;;;;;11.77;5.55;;;8.90;99.90;;;;;;4996812;28;20030;-61
2022/04/25 04:51:40;;;;;;;12.13;5.35;;;8.90;99.90;;;;;;4996446;28;20054;-62
2022/04/25 04:54:05;;;;;;;10.25;4.78;;;8.90;99.90;;;;;;4996972;28;20034;-62
2022/04/25 04:56:32;;;;;;;9.85;4.45;;;8.90;99.90;;;;;;4997720;28;20756;-61
2022/04/25 04:58:58;;;;;;;11.90;5.30;;;8.90;99.90;;;;;;4996260;28;20556;-62
2022/04/25 05:01:25;;;;;;;11.75;4.70;;;9.00;99.90;;;;;;4999624;28;20034;-62
2022/04/25 05:03:51;;;;;;;12.30;4.97;;;9.00;99.90;;;;;;4998719;28;20052;-61
2022/04/25 05:06:16;;;;;;;7.90;4.30;;;9.00;99.90;;;;;;4999996;28;20066;-62
2022/04/25 05:08:42;;;;;;;13.90;4.78;;;8.90;99.90;;;;;;5002374;28;20572;-61
2022/04/25 05:11:09;;;;;;;9.90;4.47;;;8.90;99.90;;;;;;5000925;28;20034;-61
2022/04/25 05:13:36;;;;;;;14.13;5.68;;;8.90;99.90;;;;;;5000320;28;20133;-61
2022/04/25 05:16:03;;;;;;;12.18;4.90;;;8.90;99.90;;;;;;5001717;28;20532;-61
2022/04/25 05:18:32;;;;;;;9.75;4.88;;;8.90;99.90;;;;;;5000286;28;20065;-64
2022/04/25 05:20:58;;;;;;;9.52;4.30;;;9.00;99.90;;;;;;5000601;28;20026;-61
2022/04/25 05:23:24;;;;;;;9.73;4.63;;;9.00;99.90;;;;;;4999306;28;20431;-61
2022/04/25 05:25:50;;;;;;;15.90;5.60;;;8.90;99.90;;;;;;5002717;28;20069;-61
2022/04/25 05:28:16;;;;;;;12.63;5.32;;;8.90;99.90;;;;;;4999670;28;20058;-61
2022/04/25 05:30:42;;;;;;;12.93;5.00;;;8.90;99.90;;;;;;5000427;28;20042;-61
2022/04/25 05:33:09;;;;;;;14.57;6.13;;;8.90;99.90;;;;;;4998391;28;20042;-61
2022/04/25 05:35:35;;;;;;;11.60;4.80;;;8.90;99.90;;;;;;4999774;28;20046;-61
2022/04/25 05:38:02;;;;;;;10.27;4.75;;;8.90;99.90;;;;;;5001536;28;20037;-62
2022/04/25 05:40:28;;;;;;;11.65;4.90;;;8.90;99.90;;;;;;5000163;28;20062;-63
2022/04/25 05:43:02;;;;;;;19.05;6.53;;;8.90;99.90;;;;;;5000387;28;20038;-61
2022/04/25 05:45:27;;;;;;;16.38;5.50;;;8.90;99.90;;;;;;5001817;28;20076;-62
2022/04/25 05:47:55;;;;;;;16.67;5.95;;;8.80;99.90;;;;;;4999492;28;20109;-61
2022/04/25 05:53:05;;;;;;;16.58;6.95;;;8.90;99.90;;;;;;5000595;28;20177;-63
2022/04/25 05:55:31;;;;;;;12.20;5.28;;;8.90;99.90;;;;;;5000595;28;20128;-62
2022/04/25 05:57:58;;;;;;;19.33;5.10;;;8.80;99.90;;;;;;4999741;28;20085;-61
2022/04/25 06:00:24;;;;;;;11.35;5.45;;;8.80;99.90;;;;;;5001650;28;20037;-63
2022/04/25 06:02:50;;;;;;;14.15;6.78;;;8.70;99.90;;;;;;4996612;28;20553;-61
2022/04/25 06:05:16;;;;;;;16.15;6.75;;;8.60;99.90;;;;;;5002656;28;20041;-62
2022/04/25 06:07:46;;;;;;;19.63;7.72;;;8.60;99.90;;;;;;4999145;28;20112;-62
2022/04/25 06:10:15;;;;;;;15.90;6.00;;;8.60;99.90;;;;;;5002057;28;20811;-61
2022/04/25 06:12:41;;;;;;;19.50;6.70;;;8.50;99.90;;;;;;4996834;28;20090;-62
2022/04/25 06:15:08;;;;;;;14.75;6.95;;;8.50;99.90;;;;;;4991984;28;20030;-63
2022/04/25 06:17:33;;;;;;;15.80;6.40;;;8.50;99.90;;;;;;4991648;28;20376;-62
2022/04/25 06:19:59;;;;;;;16.15;8.07;;;8.40;99.90;;;;;;4994843;28;20910;-62
2022/04/25 06:22:24;;;;;;;19.30;7.63;;;8.40;99.90;;;;;;4992184;28;20042;-61
2022/04/25 06:24:50;;;;;;;18.30;7.53;;;8.40;99.90;;;;;;4995095;28;20033;-61
2022/04/25 06:27:16;;;;;;;21.50;8.40;;;8.30;99.90;;;;;;4998941;28;20038;-61
2022/04/25 06:29:44;;;;;;;15.45;6.72;;;8.30;99.90;;;;;;4996997;28;20503;-61
2022/04/25 06:32:11;;;;;;;17.48;6.95;;;8.20;99.90;;;;;;4998844;28;20093;-63
2022/04/25 06:34:36;;;;;;;21.15;7.82;;;8.20;99.90;;;;;;5000339;28;20046;-61
2022/04/25 06:37:02;;;;;;;15.05;7.90;;;8.20;99.90;;;;;;4999512;28;20506;-61
2022/04/25 06:39:28;;;;;;;14.45;6.85;;;8.20;99.90;;;;;;4998471;28;20672;-61
2022/04/25 06:41:53;;;;;;;15.77;7.90;;;8.20;99.90;;;;;;4998704;28;20034;-62
2022/04/25 06:44:19;;;;;;;17.45;7.38;;;8.30;99.90;;;;;;5001202;28;20495;-61
2022/04/25 06:46:45;;;;;;;16.38;8.00;;;8.30;99.90;;;;;;4996254;28;20514;-61
2022/04/25 06:49:21;;;;;;;19.30;8.45;;;8.30;99.90;;;;;;5001761;28;20026;-61
2022/04/25 06:51:52;;;;;;;22.77;8.25;;;8.30;99.90;;;;;;4992828;28;20085;-62
2022/04/25 06:54:17;;;;;;;;;;;8.30;99.90;;;;;;4993616;28;20505;-61
2022/04/25 06:56:43;;;;;;;25.15;7.57;;;8.30;99.90;;;;;;4999759;28;19944;-60
2022/04/25 06:59:08;;;;;;;16.90;8.88;;;8.30;99.90;;;;;;5000613;28;20440;-60
2022/04/25 07:01:35;;;;;;;18.27;8.40;;;8.40;99.90;;;;;;4997130;28;20064;-60
2022/04/25 07:04:02;;;;;;;15.98;7.72;;;8.40;99.90;;;;;;4998353;28;20030;-61
2022/04/25 07:06:27;;;;;;;19.15;8.85;;;8.40;99.90;;;;;;4998530;28;20056;-61
2022/04/25 07:08:53;;;;;;;17.17;8.38;;;8.40;99.90;;;;;;4996138;28;20042;-61
2022/04/25 07:11:19;;;;;;;22.33;9.45;;;8.40;99.90;;;;;;4996655;28;20449;-60
2022/04/25 07:13:46;;;;;;;17.02;7.80;;;8.50;99.90;;;;;;4994210;28;20030;-60
2022/04/25 07:16:12;;;;;;;17.35;8.38;;;8.50;99.90;;;;;;4991920;28;20062;-60
2022/04/25 07:18:39;;;;;;;16.92;7.72;;;8.40;99.90;;;;;;5000819;28;20037;-61
2022/04/25 07:28:48;;;;;;;17.25;8.52;;;8.50;99.90;;;;;;4998896;28;20046;-60
2022/04/25 07:29:24;;;;;;;18.92;8.30;;;8.60;99.90;;;;;;4995854;28;20041;-61
2022/04/25 07:31:51;;;;;;;19.52;8.30;;;8.60;99.90;;;;;;4998353;28;20095;-61
2022/04/25 07:34:20;;;;;;;17.35;7.00;;;8.60;99.90;;;;;;4995846;28;20038;-60
2022/04/25 07:36:51;;;;;;;16.05;7.68;;;8.60;99.90;;;;;;4995470;28;20034;-60
2022/04/25 07:39:17;;;;;;;;;;;8.60;99.90;;;;;;4999977;28;20038;-61
2022/04/25 07:41:44;;;;;;;18.52;7.60;;;8.60;99.90;;;;;;4995004;28;20072;-61
2022/04/25 07:44:10;;;;;;;19.95;7.85;;;8.70;99.90;;;;;;4999373;28;20034;-62
2022/04/25 07:46:36;;;;;;;20.55;8.23;;;8.70;99.90;;;;;;4990236;28;20037;-61
2022/04/25 07:49:03;;;;;;;15.80;7.70;;;8.60;99.90;;;;;;4995886;28;20042;-62
2022/04/25 07:51:28;;;;;;;22.05;8.00;;;8.60;99.90;;;;;;4990009;28;20387;-61
2022/04/25 07:53:54;;;;;;;18.23;8.15;;;8.60;99.90;;;;;;4993502;28;20037;-62
2022/04/25 07:56:20;;;;;;;20.13;8.05;;;8.60;99.90;;;;;;4988707;28;20046;-61
2022/04/25 07:58:45;;;;;;;15.32;7.72;;;8.50;99.90;;;;;;4992153;28;20034;-61
2022/04/25 08:01:11;;;;;;;15.90;7.10;;;8.50;99.90;;;;;;4994468;28;20034;-61
2022/04/25 08:03:37;;;;;;;17.00;8.48;;;8.60;99.90;;;;;;4994808;28;20159;-60
2022/04/25 08:06:04;;;;;;;17.23;7.90;;;8.60;99.90;;;;;;4994185;28;20040;-61
2022/04/25 08:08:32;;;;;;;16.92;7.78;;;8.50;99.90;;;;;;4990162;28;20035;-61
2022/04/25 08:10:58;;;;;;;17.70;7.90;;;8.60;99.90;;;;;;4989331;28;20034;-60
2022/04/25 08:18:53;;;;;;;18.20;7.55;;;8.70;99.90;;;;;;4995654;28;20597;-61
2022/04/25 08:21:19;;;;;;;15.98;7.43;;;8.70;99.90;;;;;;4992476;28;20046;-61
2022/04/25 08:23:47;;;;;;;15.93;7.20;;;8.90;99.90;;;;;;4994098;28;20100;-61
2022/04/25 08:26:13;;;;;;;15.43;6.70;;;8.90;99.90;;;;;;4994737;28;20165;-61
2022/04/25 08:28:40;;;;;;;21.98;8.93;;;8.90;99.90;;;;;;4995127;28;20490;-61
2022/04/25 08:31:09;;;;;;;15.73;6.68;;;8.90;99.90;;;;;;4992317;28;20085;-65
2022/04/25 08:33:35;;;;;;;13.75;7.78;;;8.90;99.90;;;;;;4994840;28;20034;-63
2022/04/25 08:36:02;;;;;;;16.70;7.03;;;9.00;99.90;;;;;;4994407;28;20125;-61
2022/04/25 08:38:28;;;;;;;14.23;6.63;;;9.00;99.90;;;;;;4997049;28;20571;-61
2022/04/25 08:40:55;;;;;;;13.40;5.80;;;9.00;99.90;;;;;;4996384;28;20037;-62
2022/04/25 08:43:21;;;;;;;14.13;6.68;;;9.00;99.90;;;;;;4996685;28;20042;-61
2022/04/25 08:45:47;;;;;;;12.65;5.95;;;9.00;99.90;;;;;;4997523;28;20456;-61
2022/04/25 08:48:14;;;;;;;9.38;5.10;;;9.00;99.90;;;;;;4996690;28;20108;-60
2022/04/25 08:50:41;;;;;;;11.63;5.72;;;9.00;99.90;;;;;;4994945;28;20034;-60
2022/04/25 08:53:09;;;;;;;15.40;6.22;;;9.00;99.90;;;;;;4995181;28;20034;-61
2022/04/25 08:55:35;;;;;;;11.90;5.40;;;9.10;99.90;;;;;;4991834;28;20046;-62
2022/04/25 08:58:02;;;;;;;11.77;5.45;;;9.10;99.90;;;;;;4999291;28;20549;-59
2022/04/25 09:00:28;;;;;;;12.30;5.85;;;9.00;99.90;;;;;;4999770;28;20034;-61
2022/04/25 09:02:54;;;;;;;11.43;5.82;;;9.00;99.90;;;;;;4996198;28;20158;-62
2022/04/25 09:05:21;;;;;;;15.05;5.65;;;8.90;99.90;;;;;;4983883;28;20056;-60
2022/04/25 09:07:47;;;;;;;13.00;6.05;;;8.90;99.90;;;;;;4996380;28;20034;-60
2022/04/25 09:10:18;;;;;;;12.50;6.10;;;8.90;99.90;;;;;;4999181;28;20038;-60
2022/04/25 09:12:46;;;;;;;12.55;6.15;;;8.90;99.90;;;;;;4995835;28;20046;-59
2022/04/25 09:15:15;;;;;;;15.27;7.05;;;8.90;99.90;;;;;;4999348;28;20017;-60
2022/04/25 09:17:41;;;;;;;12.20;6.28;;;8.90;99.90;;;;;;4996463;28;20065;-59
2022/04/25 09:20:08;;;;;;;14.82;6.50;;;8.90;99.90;;;;;;4999715;28;20131;-61
2022/04/25 09:22:36;;;;;;;16.40;6.60;;;9.00;99.90;;;;;;4991079;28;20402;-62
2022/04/25 09:25:09;;;;;;;12.73;6.78;;;8.90;99.90;;;;;;4999250;28;20513;-59
2022/04/25 09:27:35;;;;;;;13.88;6.60;;;8.90;99.90;;;;;;4991994;28;20041;-61
2022/04/25 09:30:21;;;;;;;13.32;5.97;;;8.90;99.90;;;;;;4999408;28;20034;-59
2022/04/25 09:32:48;;;;;;;18.83;6.97;;;9.00;99.90;;;;;;4994132;28;20035;-60
2022/04/25 09:35:28;;;;;;;15.40;7.32;;;8.90;99.90;;;;;;4996884;28;20034;-62
2022/04/25 09:37:56;;;;;;;14.57;6.57;;;8.90;99.90;;;;;;4997636;28;20771;-60
2022/04/25 09:40:23;;;;;;;17.55;6.60;;;8.90;99.90;;;;;;4997394;28;20502;-58
2022/04/25 09:43:05;;;;;;;12.68;7.03;;;8.90;99.90;;;;;;4999268;28;20033;-60
2022/04/25 09:45:37;;;;;;;11.40;5.82;;;8.80;99.90;;;;;;4998902;28;20033;-61
2022/04/25 09:48:15;;;;;;;13.55;6.50;;;8.80;99.90;;;;;;4993249;28;20101;-61
2022/04/25 09:50:42;;;;;;;14.07;6.72;;;8.80;99.90;;;;;;4997061;28;20037;-60
2022/04/25 09:53:10;;;;;;;14.20;6.18;;;8.80;99.90;;;;;;5001746;28;20425;-59
2022/04/25 09:55:38;;;;;;;13.23;6.50;;;8.90;99.90;;;;;;4998339;28;20470;-59
2022/04/25 09:58:22;;;;;;;15.30;5.93;;;9.00;99.90;;;;;;5002748;28;20030;-60
2022/04/25 10:00:49;;;;;;;14.23;6.72;;;9.00;99.90;;;;;;4995421;28;20026;-61
2022/04/25 10:03:17;;;;;;;14.43;6.60;;;9.00;99.90;;;;;;4998392;28;20874;-60
2022/04/25 10:05:51;;;;;;;16.98;6.63;;;8.90;99.90;;;;;;5002199;28;20026;-60
2022/04/25 10:08:18;;;;;;;19.88;7.22;;;8.90;99.90;;;;;;4996934;28;20042;-59
2022/04/25 10:10:51;;;;;;;14.52;5.97;;;8.90;99.90;;;;;;4999993;28;20498;-61
2022/04/25 10:13:17;;;;;;;13.38;6.50;;;9.00;99.90;;;;;;4990953;28;20042;-61
2022/04/25 10:15:44;;;;;;;13.48;6.68;;;9.10;99.90;;;;;;4993043;28;20031;-60
2022/04/25 10:18:10;;;;;;;15.27;6.25;;;9.20;99.90;;;;;;4997753;28;20054;-59
2022/04/25 10:20:37;;;;;;;15.85;8.18;;;9.30;99.90;;;;;;4993146;28;20080;-60
2022/04/25 10:23:05;;;;;;;15.55;6.03;;;9.40;99.90;;;;;;4987806;28;20049;-59
2022/04/25 10:25:31;;;;;;;11.95;5.95;;;9.60;99.90;;;;;;4991126;28;20034;-61
2022/04/25 10:28:01;;;;;;;13.15;6.50;;;9.70;99.90;;;;;;4991274;28;20038;-61
2022/04/25 10:30:32;;;;;;;14.82;6.38;;;9.80;99.90;;;;;;4996391;28;20117;-62
2022/04/25 10:33:22;;;;;;;11.82;6.00;;;9.90;99.90;;;;;;4990930;28;20585;-60
2022/04/25 10:35:52;;;;;;;16.17;6.57;;;10.00;99.90;;;;;;4990904;28;20561;-60
2022/04/25 10:44:31;;;;;;;11.40;6.05;;;10.40;99.90;;;;;;4989241;28;20038;-61
2022/04/25 10:47:06;;;;;;;13.73;5.80;;;10.50;99.90;;;;;;4990220;28;20046;-60
2022/04/25 10:49:38;;;;;;;13.35;6.05;;;10.60;99.90;;;;;;4991390;28;20094;-60
2022/04/25 10:52:25;;;;;;;19.05;6.45;;;10.50;99.90;;;;;;4992585;28;20038;-60
2022/04/25 10:54:51;;;;;;;13.02;5.68;;;10.50;99.90;;;;;;4990331;28;20038;-60
2022/04/25 10:57:18;;;;;;;12.10;5.68;;;10.60;99.90;;;;;;4988889;28;20030;-61
2022/04/25 10:59:44;;;;;;;12.30;4.85;;;10.60;99.90;;;;;;4997388;28;20034;-59
2022/04/25 11:02:21;;;;;;;14.25;5.93;;;10.60;99.90;;;;;;4995475;28;20034;-60
2022/04/25 11:04:47;;;;;;;11.77;5.20;;;10.50;99.90;;;;;;4991375;28;20292;-59
2022/04/25 11:07:23;;;;;;;17.13;6.70;;;10.60;99.90;;;;;;4993676;28;20498;-59
2022/04/25 11:09:50;;;;;;;13.48;5.32;;;10.50;99.90;;;;;;4991783;28;20114;-59
2022/04/25 11:12:16;;;;;;;19.83;6.13;;;10.40;99.90;;;;;;4991552;28;20031;-60
2022/04/25 11:15:00;;;;;;;12.40;5.50;;;10.40;99.90;;;;;;4990551;28;20031;-61
2022/04/25 11:17:26;;;;;;;10.00;5.22;;;10.30;99.90;;;;;;4996287;28;20045;-60
2022/04/25 11:19:56;;;;;;;15.25;6.28;;;10.40;99.90;;;;;;4992961;28;20077;-60
2022/04/25 11:22:29;;;;;;;15.30;5.85;;;10.40;99.90;;;;;;4991499;28;20562;-60
2022/04/25 11:24:55;;;;;;;10.52;4.97;;;10.40;99.90;;;;;;4992940;28;20034;-61
2022/04/25 11:27:21;;;;;;;10.23;4.90;;;10.40;99.90;;;;;;4998372;28;20537;-60
2022/04/25 11:30:17;;;;;;;17.25;5.47;;;10.30;99.90;;;;;;4991201;28;20030;-61
2022/04/25 11:32:43;;;;;;;15.23;6.47;;;10.20;99.90;;;;;;4989830;28;20037;-60
2022/04/25 11:35:09;;;;;;;18.55;5.80;;;10.10;99.90;;;;;;4997405;28;20065;-60
2022/04/25 11:37:36;;;;;;;13.00;5.07;;;10.10;99.90;;;;;;4996561;28;20439;-60
2022/04/25 11:40:07;;;;;;;11.50;5.32;;;10.20;99.90;;;;;;4995387;28;20557;-61
2022/04/25 11:42:35;;;;;;;12.30;5.20;;;10.30;99.90;;;;;;5000619;28;20034;-60
2022/04/25 11:45:01;;;;;;;12.98;5.15;;;10.50;99.90;;;;;;4996183;28;20030;-59
2022/04/25 11:47:29;;;;;;;13.43;5.15;;;10.60;99.90;;;;;;4998951;28;20495;-60
2022/04/25 11:50:06;;;;;;;14.70;6.18;;;10.70;99.90;;;;;;4992791;28;20117;-61
2022/04/25 11:52:32;;;;;;;11.55;5.18;;;10.80;99.90;;;;;;4993912;28;20088;-60
2022/04/25 11:54:58;;;;;;;11.80;5.60;;;11.00;99.90;;;;;;5000584;28;20394;-60
2022/04/25 11:57:25;;;;;;;10.60;5.35;;;11.00;99.90;;;;;;4996408;28;20372;-59
2022/04/25 12:00:16;;;;;;;9.40;4.82;;;11.10;99.90;;;;;;4996624;28;20038;-61
2022/04/25 12:02:42;;;;;;;14.52;5.65;;;11.10;99.90;;;;;;4996068;28;20117;-60
2022/04/25 12:05:10;;;;;;;16.23;5.80;;;11.10;99.90;;;;;;5000310;28;20030;-60
2022/04/25 12:07:37;;;;;;;16.17;5.82;;;11.10;99.90;;;;;;4999441;28;20031;-60
2022/04/25 12:15:34;;;;;;;13.75;5.22;;;10.70;99.90;;;;;;4997114;28;20030;-59
2022/04/25 12:18:22;;;;;;;14.02;5.90;;;10.60;99.90;;;;;;4997417;28;20033;-60
2022/04/25 12:20:49;;;;;;;17.98;5.85;;;10.60;99.90;;;;;;4998806;28;20038;-59
2022/04/25 12:23:25;;;;;;;10.02;5.35;;;10.60;99.90;;;;;;4996864;28;20041;-59
2022/04/25 12:25:52;;;;;;;14.15;5.78;;;10.50;99.90;;;;;;4999372;28;20453;-59
2022/04/25 12:28:20;;;;;;;14.20;6.00;;;10.50;99.90;;;;;;4996799;28;20042;-60
2022/04/25 12:30:52;;;;;;;15.07;5.47;;;10.50;99.90;;;;;;4998488;28;20050;-61
2022/04/25 12:33:44;;;;;;;15.70;5.78;;;10.50;99.90;;;;;;4991516;28;20528;-60
2022/04/25 12:36:16;;;;;;;14.75;6.03;;;10.50;99.90;;;;;;4991124;28;20410;-59
2022/04/25 12:38:41;;;;;;;11.15;5.25;;;10.50;99.90;;;;;;4996185;28;20046;-59
2022/04/25 12:41:09;;;;;;;13.48;5.15;;;10.60;99.90;;;;;;4994002;28;20041;-62
2022/04/25 12:43:46;;;;;;;16.23;6.60;;;10.60;99.90;;;;;;4987918;28;20410;-60
2022/04/25 12:46:16;;;;;;;13.52;5.40;;;10.60;99.90;;;;;;4993946;28;20501;-60
2022/04/25 12:49:09;;;;;;;11.60;5.40;;;10.60;99.90;;;;;;4994774;28;20465;-63
2022/04/25 12:51:37;;;;;;;11.43;5.75;;;10.50;99.90;;;;;;4984269;28;20461;-60
2022/04/25 12:54:05;;;;;;;25.23;6.95;;;10.50;99.90;;;;;;4987331;28;20092;-59
2022/04/25 12:56:34;;;;;;;13.73;6.30;;;10.50;99.90;;;;;;4995130;28;20486;-60
2022/04/25 12:59:00;;;;;;;15.75;7.32;;;10.60;99.90;;;;;;4988668;28;20029;-61
2022/04/25 13:01:30;;;;;;;17.83;5.97;;;10.60;99.90;;;;;;4987722;28;20042;-60
2022/04/25 13:04:13;;;;;;;16.23;6.38;;;10.50;99.90;;;;;;4990629;28;20069;-60
2022/04/25 13:06:41;;;;;;;17.77;6.65;;;10.50;99.90;;;;;;4995376;28;20606;-59
2022/04/25 13:09:07;;;;;;;14.82;6.43;;;10.50;99.90;;;;;;4993910;28;20066;-60
2022/04/25 13:11:33;;;;;;;16.13;5.93;;;10.50;99.90;;;;;;4987477;28;20042;-61
2022/04/25 13:14:00;;;;;;;16.73;6.43;;;10.50;99.90;;;;;;4989528;28;20730;-62
2022/04/25 13:16:25;;;;;;;15.23;6.18;;;10.50;99.90;;;;;;4991387;28;20208;-59
2022/04/25 13:18:52;;;;;;;12.80;6.20;;;10.50;99.90;;;;;;4990036;28;20075;-60
2022/04/25 13:21:18;;;;;;;17.27;6.90;;;10.50;99.90;;;;;;4991882;28;20639;-60
2022/04/25 13:23:43;;;;;;;17.92;7.00;;;10.50;99.90;;;;;;4996646;28;20062;-59
2022/04/25 13:26:09;;;;;;;16.83;6.68;;;10.60;99.90;;;;;;4996450;28;20089;-59